sensor_id;sensor_type;location;lat;lon;timestamp;P1;durP1;ratioP1;P2;durP2;ratioP2
35518;SDS011;21627;48.216;16.482;2023-10-19T00:00:55;16.52;;;11.15;;
35518;SDS011;21627;48.216;16.482;2023-10-19T00:03:24;17.17;;;10.02;;
35518;SDS011;21627;48.216;16.482;2023-10-19T00:05:52;19.60;;;11.02;;
35518;SDS011;21627;48.216;16.482;2023-10-19T00:08:22;16.80;;;10.88;;
35518;SDS011;21627;48.216;16.482;2023-10-19T00:10:50;17.35;;;10.82;;
35518;SDS011;21627;48.216;16.482;2023-10-19T00:13:31;16.30;;;11.00;;
35518;SDS011;21627;48.216;16.482;2023-10-19T00:15:58;17.00;;;11.32;;
35518;SDS011;21627;48.216;16.482;2023-10-19T00:18:26;18.15;;;11.27;;
35518;SDS011;21627;48.216;16.482;2023-10-19T00:20:54;17.70;;;10.80;;
35518;SDS011;21627;48.216;16.482;2023-10-19T00:23:26;20.65;;;12.43;;
35518;SDS011;21627;48.216;16.482;2023-10-19T00:25:58;19.67;;;11.75;;
35518;SDS011;21627;48.216;16.482;2023-10-19T00:28:32;20.23;;;12.07;;
35518;SDS011;21627;48.216;16.482;2023-10-19T00:31:02;16.25;;;11.65;;
35518;SDS011;21627;48.216;16.482;2023-10-19T00:33:38;19.58;;;12.07;;
35518;SDS011;21627;48.216;16.482;2023-10-19T00:36:09;18.42;;;12.05;;
35518;SDS011;21627;48.216;16.482;2023-10-19T00:38:40;18.50;;;11.82;;
35518;SDS011;21627;48.216;16.482;2023-10-19T00:41:22;21.50;;;12.43;;
35518;SDS011;21627;48.216;16.482;2023-10-19T00:46:30;18.00;;;12.90;;
35518;SDS011;21627;48.216;16.482;2023-10-19T00:49:20;20.77;;;12.93;;
35518;SDS011;21627;48.216;16.482;2023-10-19T00:51:53;23.60;;;13.77;;
35518;SDS011;21627;48.216;16.482;2023-10-19T00:54:38;18.48;;;12.73;;
35518;SDS011;21627;48.216;16.482;2023-10-19T00:57:19;24.92;;;13.23;;
35518;SDS011;21627;48.216;16.482;2023-10-19T00:59:47;21.60;;;13.23;;
35518;SDS011;21627;48.216;16.482;2023-10-19T01:02:15;20.92;;;12.85;;
35518;SDS011;21627;48.216;16.482;2023-10-19T01:04:44;21.05;;;13.40;;
35518;SDS011;21627;48.216;16.482;2023-10-19T01:07:22;23.30;;;13.35;;
35518;SDS011;21627;48.216;16.482;2023-10-19T01:09:54;24.05;;;13.65;;
35518;SDS011;21627;48.216;16.482;2023-10-19T01:12:31;20.70;;;12.90;;
35518;SDS011;21627;48.216;16.482;2023-10-19T01:17:33;22.55;;;14.30;;
35518;SDS011;21627;48.216;16.482;2023-10-19T01:20:14;23.10;;;14.13;;
35518;SDS011;21627;48.216;16.482;2023-10-19T01:22:53;17.83;;;13.93;;
35518;SDS011;21627;48.216;16.482;2023-10-19T01:28:23;22.38;;;14.27;;
35518;SDS011;21627;48.216;16.482;2023-10-19T01:31:19;21.23;;;13.93;;
35518;SDS011;21627;48.216;16.482;2023-10-19T01:33:58;19.88;;;13.60;;
35518;SDS011;21627;48.216;16.482;2023-10-19T01:39:09;19.92;;;14.48;;
35518;SDS011;21627;48.216;16.482;2023-10-19T01:41:37;22.63;;;14.40;;
35518;SDS011;21627;48.216;16.482;2023-10-19T01:44:08;21.38;;;14.15;;
35518;SDS011;21627;48.216;16.482;2023-10-19T01:46:40;22.65;;;15.13;;
35518;SDS011;21627;48.216;16.482;2023-10-19T01:49:10;30.08;;;15.30;;
35518;SDS011;21627;48.216;16.482;2023-10-19T01:51:37;20.27;;;13.80;;
35518;SDS011;21627;48.216;16.482;2023-10-19T01:54:08;23.95;;;15.32;;
35518;SDS011;21627;48.216;16.482;2023-10-19T01:56:35;25.38;;;16.08;;
35518;SDS011;21627;48.216;16.482;2023-10-19T01:59:05;23.33;;;15.45;;
35518;SDS011;21627;48.216;16.482;2023-10-19T02:01:34;30.92;;;14.82;;
35518;SDS011;21627;48.216;16.482;2023-10-19T02:04:04;20.15;;;14.57;;
35518;SDS011;21627;48.216;16.482;2023-10-19T02:06:35;24.33;;;15.45;;
35518;SDS011;21627;48.216;16.482;2023-10-19T02:09:03;25.88;;;16.05;;
35518;SDS011;21627;48.216;16.482;2023-10-19T02:11:40;24.55;;;15.52;;
35518;SDS011;21627;48.216;16.482;2023-10-19T02:14:13;21.65;;;16.13;;
35518;SDS011;21627;48.216;16.482;2023-10-19T02:16:42;20.40;;;15.45;;
35518;SDS011;21627;48.216;16.482;2023-10-19T02:19:13;23.67;;;15.50;;
35518;SDS011;21627;48.216;16.482;2023-10-19T02:21:41;21.35;;;15.43;;
35518;SDS011;21627;48.216;16.482;2023-10-19T02:24:09;21.08;;;14.98;;
35518;SDS011;21627;48.216;16.482;2023-10-19T02:26:48;25.20;;;15.57;;
35518;SDS011;21627;48.216;16.482;2023-10-19T02:29:20;22.70;;;14.73;;
35518;SDS011;21627;48.216;16.482;2023-10-19T02:31:48;22.98;;;15.25;;
35518;SDS011;21627;48.216;16.482;2023-10-19T02:34:20;22.02;;;16.50;;
35518;SDS011;21627;48.216;16.482;2023-10-19T02:36:47;21.27;;;15.10;;
35518;SDS011;21627;48.216;16.482;2023-10-19T02:39:14;28.88;;;16.50;;
35518;SDS011;21627;48.216;16.482;2023-10-19T02:41:47;26.17;;;16.20;;
35518;SDS011;21627;48.216;16.482;2023-10-19T02:44:18;19.63;;;14.38;;
35518;SDS011;21627;48.216;16.482;2023-10-19T02:46:49;24.20;;;16.10;;
35518;SDS011;21627;48.216;16.482;2023-10-19T02:49:35;23.85;;;14.57;;
35518;SDS011;21627;48.216;16.482;2023-10-19T02:52:06;21.98;;;16.20;;
35518;SDS011;21627;48.216;16.482;2023-10-19T02:54:33;20.70;;;15.50;;
35518;SDS011;21627;48.216;16.482;2023-10-19T02:57:01;24.02;;;16.38;;
35518;SDS011;21627;48.216;16.482;2023-10-19T02:59:32;23.00;;;16.30;;
35518;SDS011;21627;48.216;16.482;2023-10-19T03:02:00;21.80;;;15.82;;
35518;SDS011;21627;48.216;16.482;2023-10-19T03:04:34;22.40;;;16.77;;
35518;SDS011;21627;48.216;16.482;2023-10-19T03:07:05;22.92;;;16.17;;
35518;SDS011;21627;48.216;16.482;2023-10-19T03:09:40;25.10;;;16.65;;
35518;SDS011;21627;48.216;16.482;2023-10-19T03:12:15;22.17;;;15.90;;
35518;SDS011;21627;48.216;16.482;2023-10-19T03:14:43;28.85;;;17.38;;
35518;SDS011;21627;48.216;16.482;2023-10-19T03:17:14;23.35;;;16.70;;
35518;SDS011;21627;48.216;16.482;2023-10-19T03:19:42;24.27;;;17.98;;
35518;SDS011;21627;48.216;16.482;2023-10-19T03:22:10;27.52;;;18.45;;
35518;SDS011;21627;48.216;16.482;2023-10-19T03:24:38;26.73;;;16.90;;
35518;SDS011;21627;48.216;16.482;2023-10-19T03:27:13;23.20;;;17.52;;
35518;SDS011;21627;48.216;16.482;2023-10-19T03:29:44;23.90;;;16.67;;
35518;SDS011;21627;48.216;16.482;2023-10-19T03:32:20;24.58;;;17.75;;
35518;SDS011;21627;48.216;16.482;2023-10-19T03:34:52;29.70;;;18.98;;
35518;SDS011;21627;48.216;16.482;2023-10-19T03:37:24;28.83;;;18.83;;
35518;SDS011;21627;48.216;16.482;2023-10-19T03:39:54;23.55;;;17.77;;
35518;SDS011;21627;48.216;16.482;2023-10-19T03:42:25;27.42;;;17.73;;
35518;SDS011;21627;48.216;16.482;2023-10-19T03:44:54;27.08;;;17.52;;
35518;SDS011;21627;48.216;16.482;2023-10-19T03:47:23;27.98;;;17.25;;
35518;SDS011;21627;48.216;16.482;2023-10-19T03:50:00;22.52;;;16.42;;
35518;SDS011;21627;48.216;16.482;2023-10-19T03:52:36;25.70;;;16.83;;
35518;SDS011;21627;48.216;16.482;2023-10-19T03:55:06;26.27;;;17.75;;
35518;SDS011;21627;48.216;16.482;2023-10-19T03:57:38;28.13;;;17.80;;
35518;SDS011;21627;48.216;16.482;2023-10-19T04:00:13;24.70;;;18.15;;
35518;SDS011;21627;48.216;16.482;2023-10-19T04:02:52;21.65;;;16.85;;
35518;SDS011;21627;48.216;16.482;2023-10-19T04:05:22;29.48;;;18.17;;
35518;SDS011;21627;48.216;16.482;2023-10-19T04:07:51;25.67;;;18.60;;
35518;SDS011;21627;48.216;16.482;2023-10-19T04:10:22;29.02;;;18.95;;
35518;SDS011;21627;48.216;16.482;2023-10-19T04:12:56;29.52;;;18.60;;
35518;SDS011;21627;48.216;16.482;2023-10-19T04:15:27;25.63;;;17.98;;
35518;SDS011;21627;48.216;16.482;2023-10-19T04:18:05;27.17;;;17.85;;
35518;SDS011;21627;48.216;16.482;2023-10-19T04:20:36;24.95;;;17.77;;
35518;SDS011;21627;48.216;16.482;2023-10-19T04:23:23;27.38;;;17.10;;
35518;SDS011;21627;48.216;16.482;2023-10-19T04:25:55;23.90;;;17.60;;
35518;SDS011;21627;48.216;16.482;2023-10-19T04:28:31;27.10;;;19.02;;
35518;SDS011;21627;48.216;16.482;2023-10-19T04:31:05;28.23;;;18.67;;
35518;SDS011;21627;48.216;16.482;2023-10-19T04:33:33;26.70;;;18.92;;
35518;SDS011;21627;48.216;16.482;2023-10-19T04:36:00;25.77;;;17.85;;
35518;SDS011;21627;48.216;16.482;2023-10-19T04:38:28;22.48;;;16.92;;
35518;SDS011;21627;48.216;16.482;2023-10-19T04:41:03;29.65;;;18.13;;
35518;SDS011;21627;48.216;16.482;2023-10-19T04:43:35;29.27;;;19.40;;
35518;SDS011;21627;48.216;16.482;2023-10-19T04:46:07;25.05;;;17.77;;
35518;SDS011;21627;48.216;16.482;2023-10-19T04:48:39;23.10;;;17.30;;
35518;SDS011;21627;48.216;16.482;2023-10-19T04:51:08;28.10;;;19.15;;
35518;SDS011;21627;48.216;16.482;2023-10-19T04:53:36;24.98;;;18.05;;
35518;SDS011;21627;48.216;16.482;2023-10-19T04:56:04;28.17;;;19.40;;
35518;SDS011;21627;48.216;16.482;2023-10-19T04:58:35;28.90;;;17.83;;
35518;SDS011;21627;48.216;16.482;2023-10-19T05:01:03;27.40;;;17.38;;
35518;SDS011;21627;48.216;16.482;2023-10-19T05:03:31;28.80;;;18.55;;
35518;SDS011;21627;48.216;16.482;2023-10-19T05:05:59;26.50;;;18.63;;
35518;SDS011;21627;48.216;16.482;2023-10-19T05:08:27;29.77;;;18.83;;
35518;SDS011;21627;48.216;16.482;2023-10-19T05:10:55;25.42;;;18.85;;
35518;SDS011;21627;48.216;16.482;2023-10-19T05:13:23;24.20;;;18.42;;
35518;SDS011;21627;48.216;16.482;2023-10-19T05:15:54;24.75;;;18.50;;
35518;SDS011;21627;48.216;16.482;2023-10-19T05:18:22;27.50;;;18.25;;
35518;SDS011;21627;48.216;16.482;2023-10-19T05:20:49;26.05;;;18.92;;
35518;SDS011;21627;48.216;16.482;2023-10-19T05:23:22;32.88;;;19.13;;
35518;SDS011;21627;48.216;16.482;2023-10-19T05:25:51;24.77;;;19.83;;
35518;SDS011;21627;48.216;16.482;2023-10-19T05:28:29;26.25;;;18.13;;
35518;SDS011;21627;48.216;16.482;2023-10-19T05:30:56;26.83;;;18.58;;
35518;SDS011;21627;48.216;16.482;2023-10-19T05:33:26;25.73;;;18.38;;
35518;SDS011;21627;48.216;16.482;2023-10-19T05:35:56;23.50;;;18.55;;
35518;SDS011;21627;48.216;16.482;2023-10-19T05:38:23;28.88;;;20.05;;
35518;SDS011;21627;48.216;16.482;2023-10-19T05:40:50;24.63;;;18.27;;
35518;SDS011;21627;48.216;16.482;2023-10-19T05:43:18;28.33;;;19.95;;
35518;SDS011;21627;48.216;16.482;2023-10-19T05:45:45;27.10;;;17.75;;
35518;SDS011;21627;48.216;16.482;2023-10-19T05:48:16;23.90;;;17.75;;
35518;SDS011;21627;48.216;16.482;2023-10-19T05:50:44;22.83;;;16.30;;
35518;SDS011;21627;48.216;16.482;2023-10-19T05:53:11;27.75;;;19.08;;
35518;SDS011;21627;48.216;16.482;2023-10-19T05:55:38;26.23;;;18.52;;
35518;SDS011;21627;48.216;16.482;2023-10-19T05:58:06;25.17;;;18.65;;
35518;SDS011;21627;48.216;16.482;2023-10-19T06:00:33;28.58;;;19.70;;
35518;SDS011;21627;48.216;16.482;2023-10-19T06:03:01;25.90;;;19.23;;
35518;SDS011;21627;48.216;16.482;2023-10-19T06:05:28;31.75;;;20.45;;
35518;SDS011;21627;48.216;16.482;2023-10-19T06:07:57;27.00;;;19.45;;
35518;SDS011;21627;48.216;16.482;2023-10-19T06:10:27;27.45;;;19.90;;
35518;SDS011;21627;48.216;16.482;2023-10-19T06:12:55;30.42;;;19.63;;
35518;SDS011;21627;48.216;16.482;2023-10-19T06:15:23;27.83;;;20.52;;
35518;SDS011;21627;48.216;16.482;2023-10-19T06:17:51;29.65;;;19.70;;
35518;SDS011;21627;48.216;16.482;2023-10-19T06:20:19;26.48;;;20.35;;
35518;SDS011;21627;48.216;16.482;2023-10-19T06:22:53;29.13;;;19.92;;
35518;SDS011;21627;48.216;16.482;2023-10-19T06:25:32;26.98;;;19.55;;
35518;SDS011;21627;48.216;16.482;2023-10-19T06:28:03;28.25;;;19.05;;
35518;SDS011;21627;48.216;16.482;2023-10-19T06:30:33;30.88;;;20.55;;
35518;SDS011;21627;48.216;16.482;2023-10-19T06:33:00;27.63;;;19.90;;
35518;SDS011;21627;48.216;16.482;2023-10-19T06:35:30;34.10;;;20.30;;
35518;SDS011;21627;48.216;16.482;2023-10-19T06:37:58;29.23;;;20.25;;
35518;SDS011;21627;48.216;16.482;2023-10-19T06:40:27;28.52;;;20.02;;
35518;SDS011;21627;48.216;16.482;2023-10-19T06:42:54;27.90;;;20.02;;
35518;SDS011;21627;48.216;16.482;2023-10-19T06:45:22;28.30;;;19.27;;
35518;SDS011;21627;48.216;16.482;2023-10-19T06:47:51;32.22;;;21.45;;
35518;SDS011;21627;48.216;16.482;2023-10-19T06:50:19;28.00;;;19.58;;
35518;SDS011;21627;48.216;16.482;2023-10-19T06:52:48;30.02;;;19.65;;
35518;SDS011;21627;48.216;16.482;2023-10-19T06:55:17;27.02;;;19.67;;
35518;SDS011;21627;48.216;16.482;2023-10-19T06:57:53;27.15;;;19.80;;
35518;SDS011;21627;48.216;16.482;2023-10-19T07:00:25;29.15;;;20.35;;
35518;SDS011;21627;48.216;16.482;2023-10-19T07:02:55;29.17;;;19.48;;
35518;SDS011;21627;48.216;16.482;2023-10-19T07:05:27;30.38;;;20.52;;
35518;SDS011;21627;48.216;16.482;2023-10-19T07:07:56;27.30;;;19.48;;
35518;SDS011;21627;48.216;16.482;2023-10-19T07:10:26;30.38;;;20.58;;
35518;SDS011;21627;48.216;16.482;2023-10-19T07:12:54;29.65;;;19.23;;
35518;SDS011;21627;48.216;16.482;2023-10-19T07:15:24;28.23;;;19.00;;
35518;SDS011;21627;48.216;16.482;2023-10-19T07:17:53;30.08;;;18.95;;
35518;SDS011;21627;48.216;16.482;2023-10-19T07:20:23;28.50;;;19.70;;
35518;SDS011;21627;48.216;16.482;2023-10-19T07:22:55;31.38;;;20.77;;
35518;SDS011;21627;48.216;16.482;2023-10-19T07:25:33;27.63;;;19.83;;
35518;SDS011;21627;48.216;16.482;2023-10-19T07:28:10;30.38;;;20.10;;
35518;SDS011;21627;48.216;16.482;2023-10-19T07:30:39;32.40;;;20.33;;
35518;SDS011;21627;48.216;16.482;2023-10-19T07:33:08;28.30;;;20.10;;
35518;SDS011;21627;48.216;16.482;2023-10-19T07:35:37;26.52;;;19.13;;
35518;SDS011;21627;48.216;16.482;2023-10-19T07:38:05;28.92;;;20.55;;
35518;SDS011;21627;48.216;16.482;2023-10-19T07:40:34;35.80;;;19.85;;
35518;SDS011;21627;48.216;16.482;2023-10-19T07:43:02;28.42;;;19.45;;
35518;SDS011;21627;48.216;16.482;2023-10-19T07:45:30;28.95;;;18.83;;
35518;SDS011;21627;48.216;16.482;2023-10-19T07:47:58;32.33;;;19.90;;
35518;SDS011;21627;48.216;16.482;2023-10-19T07:50:33;29.83;;;20.38;;
35518;SDS011;21627;48.216;16.482;2023-10-19T07:53:02;26.63;;;19.90;;
35518;SDS011;21627;48.216;16.482;2023-10-19T07:55:29;27.42;;;19.75;;
35518;SDS011;21627;48.216;16.482;2023-10-19T07:58:00;28.58;;;19.42;;
35518;SDS011;21627;48.216;16.482;2023-10-19T08:00:30;26.05;;;18.80;;
35518;SDS011;21627;48.216;16.482;2023-10-19T08:02:57;32.10;;;19.90;;
35518;SDS011;21627;48.216;16.482;2023-10-19T08:05:25;28.17;;;19.90;;
35518;SDS011;21627;48.216;16.482;2023-10-19T08:07:53;28.73;;;19.55;;
35518;SDS011;21627;48.216;16.482;2023-10-19T08:10:21;31.13;;;21.10;;
35518;SDS011;21627;48.216;16.482;2023-10-19T08:12:49;26.70;;;19.30;;
35518;SDS011;21627;48.216;16.482;2023-10-19T08:15:16;27.77;;;19.77;;
35518;SDS011;21627;48.216;16.482;2023-10-19T08:17:48;24.60;;;18.58;;
35518;SDS011;21627;48.216;16.482;2023-10-19T08:20:17;26.83;;;18.85;;
35518;SDS011;21627;48.216;16.482;2023-10-19T08:22:52;25.77;;;19.30;;
35518;SDS011;21627;48.216;16.482;2023-10-19T08:25:24;25.92;;;18.83;;
35518;SDS011;21627;48.216;16.482;2023-10-19T08:28:14;24.77;;;18.33;;
35518;SDS011;21627;48.216;16.482;2023-10-19T08:30:42;28.15;;;18.20;;
35518;SDS011;21627;48.216;16.482;2023-10-19T08:33:11;29.23;;;19.13;;
35518;SDS011;21627;48.216;16.482;2023-10-19T08:35:40;26.95;;;18.55;;
35518;SDS011;21627;48.216;16.482;2023-10-19T08:38:07;25.38;;;18.63;;
35518;SDS011;21627;48.216;16.482;2023-10-19T08:40:38;28.45;;;18.48;;
35518;SDS011;21627;48.216;16.482;2023-10-19T08:43:06;29.08;;;19.30;;
35518;SDS011;21627;48.216;16.482;2023-10-19T08:45:39;24.90;;;18.83;;
35518;SDS011;21627;48.216;16.482;2023-10-19T08:48:08;26.75;;;19.13;;
35518;SDS011;21627;48.216;16.482;2023-10-19T08:50:35;24.63;;;18.30;;
35518;SDS011;21627;48.216;16.482;2023-10-19T08:53:07;24.15;;;17.95;;
35518;SDS011;21627;48.216;16.482;2023-10-19T08:55:35;27.45;;;18.08;;
35518;SDS011;21627;48.216;16.482;2023-10-19T08:58:15;30.48;;;17.90;;
35518;SDS011;21627;48.216;16.482;2023-10-19T09:00:46;26.08;;;19.00;;
35518;SDS011;21627;48.216;16.482;2023-10-19T09:03:23;26.98;;;18.67;;
35518;SDS011;21627;48.216;16.482;2023-10-19T09:05:52;25.38;;;18.63;;
35518;SDS011;21627;48.216;16.482;2023-10-19T09:08:21;25.98;;;18.75;;
35518;SDS011;21627;48.216;16.482;2023-10-19T09:10:49;26.38;;;18.08;;
35518;SDS011;21627;48.216;16.482;2023-10-19T09:13:21;26.92;;;18.10;;
35518;SDS011;21627;48.216;16.482;2023-10-19T09:15:51;23.20;;;18.52;;
35518;SDS011;21627;48.216;16.482;2023-10-19T09:18:23;25.17;;;18.20;;
35518;SDS011;21627;48.216;16.482;2023-10-19T09:20:55;25.23;;;18.70;;
35518;SDS011;21627;48.216;16.482;2023-10-19T09:23:34;26.13;;;19.27;;
35518;SDS011;21627;48.216;16.482;2023-10-19T09:26:03;24.13;;;18.65;;
35518;SDS011;21627;48.216;16.482;2023-10-19T09:28:35;23.95;;;17.75;;
35518;SDS011;21627;48.216;16.482;2023-10-19T09:31:05;28.88;;;19.38;;
35518;SDS011;21627;48.216;16.482;2023-10-19T09:33:36;24.10;;;17.98;;
35518;SDS011;21627;48.216;16.482;2023-10-19T09:36:07;26.30;;;19.15;;
35518;SDS011;21627;48.216;16.482;2023-10-19T09:38:44;25.38;;;17.75;;
35518;SDS011;21627;48.216;16.482;2023-10-19T09:41:18;23.85;;;18.55;;
35518;SDS011;21627;48.216;16.482;2023-10-19T09:43:55;24.23;;;18.35;;
35518;SDS011;21627;48.216;16.482;2023-10-19T09:46:31;26.05;;;19.13;;
35518;SDS011;21627;48.216;16.482;2023-10-19T09:49:03;25.08;;;18.48;;
35518;SDS011;21627;48.216;16.482;2023-10-19T09:51:30;24.63;;;18.42;;
35518;SDS011;21627;48.216;16.482;2023-10-19T09:54:06;28.05;;;18.77;;
35518;SDS011;21627;48.216;16.482;2023-10-19T09:56:47;26.45;;;18.33;;
35518;SDS011;21627;48.216;16.482;2023-10-19T10:04:33;26.10;;;17.60;;
35518;SDS011;21627;48.216;16.482;2023-10-19T10:07:04;28.77;;;18.17;;
35518;SDS011;21627;48.216;16.482;2023-10-19T10:09:38;24.75;;;18.35;;
35518;SDS011;21627;48.216;16.482;2023-10-19T10:12:16;24.95;;;17.10;;
35518;SDS011;21627;48.216;16.482;2023-10-19T10:17:28;23.92;;;17.73;;
35518;SDS011;21627;48.216;16.482;2023-10-19T10:22:40;22.17;;;16.65;;
35518;SDS011;21627;48.216;16.482;2023-10-19T10:25:26;26.85;;;17.13;;
35518;SDS011;21627;48.216;16.482;2023-10-19T10:27:54;22.92;;;16.08;;
35518;SDS011;21627;48.216;16.482;2023-10-19T10:30:22;23.42;;;16.50;;
35518;SDS011;21627;48.216;16.482;2023-10-19T10:32:50;24.30;;;16.75;;
35518;SDS011;21627;48.216;16.482;2023-10-19T10:38:09;21.13;;;15.90;;
35518;SDS011;21627;48.216;16.482;2023-10-19T10:40:44;19.08;;;15.13;;
35518;SDS011;21627;48.216;16.482;2023-10-19T10:43:17;21.63;;;15.55;;
35518;SDS011;21627;48.216;16.482;2023-10-19T10:45:45;22.75;;;16.13;;
35518;SDS011;21627;48.216;16.482;2023-10-19T10:48:16;21.00;;;15.30;;
35518;SDS011;21627;48.216;16.482;2023-10-19T10:50:47;23.30;;;15.68;;
35518;SDS011;21627;48.216;16.482;2023-10-19T10:53:15;20.55;;;14.95;;
35518;SDS011;21627;48.216;16.482;2023-10-19T10:55:42;17.85;;;14.55;;
35518;SDS011;21627;48.216;16.482;2023-10-19T10:58:11;26.67;;;15.15;;
35518;SDS011;21627;48.216;16.482;2023-10-19T11:00:42;20.63;;;15.15;;
35518;SDS011;21627;48.216;16.482;2023-10-19T11:03:13;19.70;;;14.20;;
35518;SDS011;21627;48.216;16.482;2023-10-19T11:05:42;21.95;;;13.90;;
35518;SDS011;21627;48.216;16.482;2023-10-19T11:08:15;21.52;;;15.10;;
35518;SDS011;21627;48.216;16.482;2023-10-19T11:10:44;26.58;;;14.63;;
35518;SDS011;21627;48.216;16.482;2023-10-19T11:13:22;18.02;;;13.55;;
35518;SDS011;21627;48.216;16.482;2023-10-19T11:15:55;20.38;;;13.90;;
35518;SDS011;21627;48.216;16.482;2023-10-19T11:18:35;25.05;;;14.25;;
35518;SDS011;21627;48.216;16.482;2023-10-19T11:21:06;23.27;;;14.27;;
35518;SDS011;21627;48.216;16.482;2023-10-19T11:23:38;27.45;;;13.63;;
35518;SDS011;21627;48.216;16.482;2023-10-19T11:26:06;20.80;;;14.35;;
35518;SDS011;21627;48.216;16.482;2023-10-19T11:28:33;18.60;;;13.45;;
35518;SDS011;21627;48.216;16.482;2023-10-19T11:31:15;17.15;;;12.82;;
35518;SDS011;21627;48.216;16.482;2023-10-19T11:33:51;24.45;;;12.73;;
35518;SDS011;21627;48.216;16.482;2023-10-19T11:36:20;19.10;;;12.07;;
35518;SDS011;21627;48.216;16.482;2023-10-19T11:38:49;19.52;;;12.75;;
35518;SDS011;21627;48.216;16.482;2023-10-19T11:41:19;23.17;;;14.80;;
35518;SDS011;21627;48.216;16.482;2023-10-19T11:43:46;24.45;;;16.92;;
35518;SDS011;21627;48.216;16.482;2023-10-19T11:46:15;28.13;;;18.02;;
35518;SDS011;21627;48.216;16.482;2023-10-19T11:48:52;28.20;;;16.65;;
35518;SDS011;21627;48.216;16.482;2023-10-19T11:51:19;28.92;;;17.02;;
35518;SDS011;21627;48.216;16.482;2023-10-19T11:53:46;26.27;;;19.02;;
35518;SDS011;21627;48.216;16.482;2023-10-19T11:56:13;25.05;;;18.20;;
35518;SDS011;21627;48.216;16.482;2023-10-19T11:58:42;29.13;;;19.67;;
35518;SDS011;21627;48.216;16.482;2023-10-19T12:01:13;36.10;;;19.13;;
35518;SDS011;21627;48.216;16.482;2023-10-19T12:03:44;27.88;;;18.60;;
35518;SDS011;21627;48.216;16.482;2023-10-19T12:06:13;24.45;;;17.40;;
35518;SDS011;21627;48.216;16.482;2023-10-19T12:08:46;27.02;;;19.10;;
35518;SDS011;21627;48.216;16.482;2023-10-19T12:11:13;26.45;;;17.35;;
35518;SDS011;21627;48.216;16.482;2023-10-19T12:13:45;29.52;;;17.73;;
35518;SDS011;21627;48.216;16.482;2023-10-19T12:16:14;26.40;;;17.75;;
35518;SDS011;21627;48.216;16.482;2023-10-19T12:18:43;27.00;;;17.92;;
35518;SDS011;21627;48.216;16.482;2023-10-19T12:21:12;25.17;;;18.13;;
35518;SDS011;21627;48.216;16.482;2023-10-19T12:23:40;24.60;;;17.40;;
35518;SDS011;21627;48.216;16.482;2023-10-19T12:26:10;26.23;;;15.35;;
35518;SDS011;21627;48.216;16.482;2023-10-19T12:28:38;29.92;;;17.15;;
35518;SDS011;21627;48.216;16.482;2023-10-19T12:31:07;24.98;;;17.15;;
35518;SDS011;21627;48.216;16.482;2023-10-19T12:33:38;25.42;;;16.80;;
35518;SDS011;21627;48.216;16.482;2023-10-19T12:36:08;24.25;;;17.10;;
35518;SDS011;21627;48.216;16.482;2023-10-19T12:38:50;30.85;;;18.17;;
35518;SDS011;21627;48.216;16.482;2023-10-19T12:41:19;24.05;;;16.75;;
35518;SDS011;21627;48.216;16.482;2023-10-19T12:43:47;28.48;;;17.08;;
35518;SDS011;21627;48.216;16.482;2023-10-19T12:46:14;28.40;;;19.35;;
35518;SDS011;21627;48.216;16.482;2023-10-19T12:48:45;31.85;;;19.40;;
35518;SDS011;21627;48.216;16.482;2023-10-19T12:51:15;27.40;;;19.17;;
35518;SDS011;21627;48.216;16.482;2023-10-19T12:53:52;28.45;;;19.00;;
35518;SDS011;21627;48.216;16.482;2023-10-19T12:56:20;28.85;;;18.35;;
35518;SDS011;21627;48.216;16.482;2023-10-19T12:58:50;30.10;;;19.00;;
35518;SDS011;21627;48.216;16.482;2023-10-19T13:01:17;28.83;;;18.95;;
35518;SDS011;21627;48.216;16.482;2023-10-19T13:03:46;26.15;;;18.25;;
35518;SDS011;21627;48.216;16.482;2023-10-19T13:06:16;31.40;;;18.42;;
35518;SDS011;21627;48.216;16.482;2023-10-19T13:08:44;25.75;;;18.13;;
35518;SDS011;21627;48.216;16.482;2023-10-19T13:11:11;30.23;;;16.77;;
35518;SDS011;21627;48.216;16.482;2023-10-19T13:13:44;29.13;;;17.60;;
35518;SDS011;21627;48.216;16.482;2023-10-19T13:16:14;34.22;;;16.73;;
35518;SDS011;21627;48.216;16.482;2023-10-19T13:18:42;31.10;;;17.23;;
35518;SDS011;21627;48.216;16.482;2023-10-19T13:21:10;24.10;;;15.45;;
35518;SDS011;21627;48.216;16.482;2023-10-19T13:23:43;26.52;;;16.00;;
35518;SDS011;21627;48.216;16.482;2023-10-19T13:26:11;24.58;;;15.55;;
35518;SDS011;21627;48.216;16.482;2023-10-19T13:28:42;22.90;;;15.52;;
35518;SDS011;21627;48.216;16.482;2023-10-19T13:31:10;21.85;;;15.65;;
35518;SDS011;21627;48.216;16.482;2023-10-19T13:33:40;26.73;;;15.05;;
35518;SDS011;21627;48.216;16.482;2023-10-19T13:36:12;23.92;;;14.75;;
35518;SDS011;21627;48.216;16.482;2023-10-19T13:38:40;22.35;;;13.98;;
35518;SDS011;21627;48.216;16.482;2023-10-19T13:41:08;24.77;;;14.55;;
35518;SDS011;21627;48.216;16.482;2023-10-19T13:43:39;27.25;;;15.73;;
35518;SDS011;21627;48.216;16.482;2023-10-19T13:46:09;25.45;;;15.70;;
35518;SDS011;21627;48.216;16.482;2023-10-19T13:48:36;27.27;;;13.95;;
35518;SDS011;21627;48.216;16.482;2023-10-19T13:51:06;23.33;;;14.57;;
35518;SDS011;21627;48.216;16.482;2023-10-19T13:53:40;19.83;;;14.15;;
35518;SDS011;21627;48.216;16.482;2023-10-19T13:56:08;20.33;;;13.73;;
35518;SDS011;21627;48.216;16.482;2023-10-19T13:58:37;23.52;;;14.57;;
35518;SDS011;21627;48.216;16.482;2023-10-19T14:01:08;21.65;;;15.13;;
35518;SDS011;21627;48.216;16.482;2023-10-19T14:03:37;28.40;;;13.73;;
35518;SDS011;21627;48.216;16.482;2023-10-19T14:06:05;23.08;;;13.70;;
35518;SDS011;21627;48.216;16.482;2023-10-19T14:08:38;20.00;;;13.02;;
35518;SDS011;21627;48.216;16.482;2023-10-19T14:11:06;22.25;;;14.13;;
35518;SDS011;21627;48.216;16.482;2023-10-19T14:13:34;24.58;;;15.10;;
35518;SDS011;21627;48.216;16.482;2023-10-19T14:16:06;27.33;;;14.10;;
35518;SDS011;21627;48.216;16.482;2023-10-19T14:18:38;31.80;;;15.20;;
35518;SDS011;21627;48.216;16.482;2023-10-19T14:21:16;22.38;;;13.70;;
35518;SDS011;21627;48.216;16.482;2023-10-19T14:23:45;18.88;;;13.57;;
35518;SDS011;21627;48.216;16.482;2023-10-19T14:26:14;25.05;;;13.90;;
35518;SDS011;21627;48.216;16.482;2023-10-19T14:28:42;23.88;;;13.23;;
35518;SDS011;21627;48.216;16.482;2023-10-19T14:31:09;26.58;;;13.18;;
35518;SDS011;21627;48.216;16.482;2023-10-19T14:33:38;25.75;;;14.07;;
35518;SDS011;21627;48.216;16.482;2023-10-19T14:36:06;23.63;;;13.00;;
35518;SDS011;21627;48.216;16.482;2023-10-19T14:38:35;24.75;;;12.88;;
35518;SDS011;21627;48.216;16.482;2023-10-19T14:41:04;16.55;;;12.00;;
35518;SDS011;21627;48.216;16.482;2023-10-19T14:43:31;24.83;;;12.88;;
35518;SDS011;21627;48.216;16.482;2023-10-19T14:45:59;21.05;;;12.20;;
35518;SDS011;21627;48.216;16.482;2023-10-19T14:48:28;22.65;;;12.25;;
35518;SDS011;21627;48.216;16.482;2023-10-19T14:50:58;17.90;;;10.90;;
35518;SDS011;21627;48.216;16.482;2023-10-19T14:53:26;23.60;;;12.52;;